Welcome to Northern Hawkes Bay. New Zealand.
PWS Header
      nz Flag



Hit Counter


W3C Valid W3C Valid logo


    Wairoa

Select any of the Stations below to visit their websites.










Historic Data from Weather Underground
Select the location of interest below. Wairoa is the default. Please have patience, this Data is slow to load in.
Northern Hawkes Bay Historical Data
Daily Summary for April 16, 2017 Units:  Metric    English   Both
« Previous Day
Next Day »
Daily Weekly Monthly Yearly Custom
  High: Low: Average:
Temperature: 22.4 °C 11.4 °C 15 °C
Dew Point: 15.1 °C 10.3 °C 13.1 °C
Humidity: 99% 58% 89%
Wind Speed: 15.8km/h 0.0km/h 3.2km/h
Wind Gust: 20.9km/h - -
Wind- - West
Pressure: 1013.8 hPa 1010.0 hPa -
Precipitation: 1.3 mm    
Historical Graphs
 
 
Tabular Data for April 16, 2017
Time Temperature Dew Point Pressure Wind Wind Speed Wind Gust Humidity Rainfall Rate (Hourly) solar
00:05 20.7 °C 13.4 °C 1010.0 hPa North 5.0 km/h 12.2 km/h 63% 0.0 mm 92 W/m2
00:10 21.6 °C 14.0 °C 1010.4 hPa North 2.6 km/h 11.1 km/h 62% 0.0 mm 149 W/m2
00:15 22.4 °C 14.0 °C 1010.4 hPa North 8.7 km/h 11.1 km/h 59% 0.0 mm 171 W/m2
00:20 22.4 °C 13.7 °C 1010.4 hPa North 7.2 km/h 13.4 km/h 58% 0.0 mm 161 W/m2
00:25 21.8 °C 13.2 °C 1010.4 hPa NNW 9.7 km/h 15.8 km/h 58% 0.0 mm 96 W/m2
00:30 20.7 °C 13.4 °C 1010.4 hPa North 6.1 km/h 15.8 km/h 63% 0.0 mm 50 W/m2
00:36 20.0 °C 13.2 °C 1010.0 hPa NNE 8.7 km/h 18.3 km/h 65% 0.0 mm 30 W/m2
00:41 19.6 °C 13.3 °C 1010.4 hPa North 6.1 km/h 18.3 km/h 67% 0.0 mm 25 W/m2
00:46 19.2 °C 12.9 °C 1010.4 hPa NNW 3.5 km/h 11.1 km/h 67% 0.0 mm 20 W/m2
00:51 19.0 °C 13.2 °C 1010.4 hPa NNW 7.2 km/h 11.1 km/h 69% 0.0 mm 16 W/m2
00:56 18.7 °C 13.3 °C 1010.4 hPa NNW 5.0 km/h 9.7 km/h 71% 0.0 mm 14 W/m2
01:01 18.5 °C 13.4 °C 1010.4 hPa NNW 2.6 km/h 9.7 km/h 72% 0.0 mm 13 W/m2
01:06 18.3 °C 13.4 °C 1010.4 hPa NNW 6.1 km/h 9.7 km/h 73% 0.0 mm 12 W/m2
01:11 18.2 °C 13.3 °C 1010.7 hPa NNW 5.0 km/h 9.7 km/h 73% 0.0 mm 10 W/m2
01:15 18.0 °C 13.3 °C 1010.7 hPa NNW 3.5 km/h 9.7 km/h 74% 0.0 mm 8 W/m2
01:20 17.9 °C 13.2 °C 1010.7 hPa Calm   8.7 km/h 74% 0.0 mm 6 W/m2
01:25 17.8 °C 13.1 °C 1010.7 hPa Calm   6.1 km/h 74% 0.0 mm 5 W/m2
01:30 17.6 °C 13.1 °C 1010.7 hPa WNW 5.0 km/h 6.1 km/h 75% 0.0 mm 4 W/m2
01:36 17.5 °C 13.1 °C 1011.1 hPa Calm   8.7 km/h 75% 0.0 mm 2 W/m2
01:41 17.4 °C 12.9 °C 1011.4 hPa WNW 2.6 km/h 9.7 km/h 75% 0.0 mm 1 W/m2
01:46 17.2 °C 12.3 °C 1011.4 hPa West 3.5 km/h 13.4 km/h 73% 0.0 mm 0 W/m2
01:51 17.2 °C 11.3 °C 1011.4 hPa WNW 7.2 km/h 17.2 km/h 68% 0.0 mm 0 W/m2
01:56 17.2 °C 10.6 °C 1011.7 hPa WNW 3.5 km/h 17.2 km/h 65% 0.0 mm 0 W/m2
02:01 17.2 °C 10.3 °C 1011.7 hPa WNW 5.0 km/h 17.2 km/h 64% 0.0 mm 0 W/m2
02:06 17.0 °C 10.4 °C 1012.1 hPa WNW 7.2 km/h 14.8 km/h 65% 0.0 mm 0 W/m2
02:11 16.8 °C 11.1 °C 1012.1 hPa WNW 8.7 km/h 19.5 km/h 69% 0.0 mm 0 W/m2
02:16 16.5 °C 11.4 °C 1011.7 hPa NW 5.0 km/h 19.5 km/h 72% 0.0 mm 0 W/m2
02:21 16.3 °C 11.4 °C 1012.1 hPa NNW 6.1 km/h 14.8 km/h 73% 0.0 mm 0 W/m2
02:26 16.0 °C 11.8 °C 1012.1 hPa North 3.5 km/h 13.4 km/h 76% 0.3 mm 0 W/m2
02:31 15.6 °C 12.0 °C 1011.7 hPa Calm   13.4 km/h 79% 0.3 mm 0 W/m2
02:36 15.4 °C 12.6 °C 1011.4 hPa NE 1.1 km/h 7.2 km/h 83% 0.3 mm 0 W/m2
02:41 15.3 °C 12.6 °C 1011.4 hPa Calm   8.7 km/h 84% 0.3 mm 0 W/m2
02:46 15.2 °C 12.5 °C 1011.7 hPa Calm   8.7 km/h 84% 0.3 mm 0 W/m2
02:51 15.1 °C 12.6 °C 1012.1 hPa NNW 3.5 km/h 12.2 km/h 85% 0.3 mm 0 W/m2
02:56 15.0 °C 12.5 °C 1011.7 hPa NNW 2.6 km/h 12.2 km/h 85% 0.3 mm 0 W/m2
03:01 15.0 °C 12.7 °C 1012.1 hPa NNW 1.1 km/h 9.7 km/h 86% 0.3 mm 0 W/m2
03:06 14.9 °C 12.8 °C 1011.7 hPa NNW 3.5 km/h 8.7 km/h 87% 0.3 mm 0 W/m2
03:11 14.8 °C 12.7 °C 1012.1 hPa North 6.1 km/h 8.7 km/h 87% 0.3 mm 0 W/m2
03:16 14.8 °C 12.7 °C 1012.1 hPa Calm   8.7 km/h 87% 0.3 mm 0 W/m2
03:21 14.8 °C 12.8 °C 1012.1 hPa Calm   8.7 km/h 88% 0.3 mm 0 W/m2
03:26 14.8 °C 12.8 °C 1012.1 hPa Calm   6.1 km/h 88% 0.0 mm 0 W/m2
03:31 14.7 °C 12.6 °C 1012.1 hPa Calm     87% 0.0 mm 0 W/m2
03:36 14.7 °C 12.7 °C 1012.1 hPa Calm     88% 0.0 mm 0 W/m2
03:41 14.7 °C 12.7 °C 1012.1 hPa Calm   3.5 km/h 88% 0.0 mm 0 W/m2
03:46 14.6 °C 12.8 °C 1012.1 hPa North 1.1 km/h 3.5 km/h 89% 0.3 mm 0 W/m2
03:51 14.6 °C 13.0 °C 1012.1 hPa NW 5.0 km/h 7.2 km/h 90% 0.3 mm 0 W/m2
03:56 14.5 °C 13.1 °C 1012.1 hPa WNW 5.0 km/h 7.2 km/h 91% 0.3 mm 0 W/m2
04:01 14.3 °C 13.0 °C 1012.4 hPa NW 7.2 km/h 11.1 km/h 92% 0.3 mm 0 W/m2
04:06 14.2 °C 13.3 °C 1012.4 hPa NNW 6.1 km/h 14.8 km/h 94% 0.3 mm 0 W/m2
04:11 14.2 °C 13.3 °C 1012.4 hPa NNW 3.5 km/h 14.8 km/h 94% 0.3 mm 0 W/m2
04:16 14.2 °C 13.4 °C 1012.4 hPa North 3.5 km/h 9.7 km/h 95% 0.5 mm 0 W/m2
04:21 14.2 °C 13.4 °C 1012.8 hPa North 6.1 km/h 8.7 km/h 95% 0.5 mm 0 W/m2
04:26 14.1 °C 13.3 °C 1012.8 hPa North 5.0 km/h 11.1 km/h 95% 1.0 mm 0 W/m2
04:31 14.1 °C 13.3 °C 1012.8 hPa North 2.6 km/h 11.1 km/h 95% 1.0 mm 0 W/m2
04:36 14.1 °C 13.5 °C 1012.8 hPa NNE 6.1 km/h 9.7 km/h 96% 1.5 mm 0 W/m2
04:41 14.1 °C 13.5 °C 1012.4 hPa NE 8.7 km/h 14.8 km/h 96% 1.8 mm 0 W/m2
04:46 14.0 °C 13.6 °C 1012.1 hPa ENE 6.1 km/h 14.8 km/h 97% 1.5 mm 0 W/m2
04:51 14.1 °C 13.6 °C 1012.1 hPa NE 3.5 km/h 14.8 km/h 97% 1.5 mm 0 W/m2
04:56 14.1 °C 13.6 °C 1012.4 hPa NE 1.1 km/h 13.4 km/h 97% 1.5 mm 0 W/m2
05:01 14.1 °C 13.6 °C 1012.4 hPa NNW 6.1 km/h 12.2 km/h 97% 1.5 mm 0 W/m2
05:06 14.0 °C 13.6 °C 1012.1 hPa NW 3.5 km/h 12.2 km/h 97% 1.5 mm 0 W/m2
05:11 14.0 °C 13.6 °C 1012.4 hPa Calm   9.7 km/h 97% 1.5 mm 0 W/m2
05:16 14.0 °C 13.6 °C 1012.4 hPa NNW 6.1 km/h 14.8 km/h 97% 1.3 mm 0 W/m2
05:21 14.1 °C 13.6 °C 1012.4 hPa NW 7.2 km/h 14.8 km/h 97% 1.3 mm 0 W/m2
05:26 14.1 °C 13.6 °C 1012.4 hPa NW 3.5 km/h 13.4 km/h 97% 1.0 mm 0 W/m2
05:31 14.1 °C 13.6 °C 1012.4 hPa NNW 1.1 km/h 11.1 km/h 97% 1.0 mm 0 W/m2
05:36 14.1 °C 13.6 °C 1012.4 hPa Calm   7.2 km/h 97% 0.3 mm 0 W/m2
05:41 14.0 °C 13.7 °C 1012.4 hPa Calm   6.1 km/h 98% 0.0 mm 0 W/m2
05:46 14.0 °C 13.7 °C 1012.4 hPa Calm   6.1 km/h 98% 0.0 mm 0 W/m2
05:51 14.0 °C 13.7 °C 1012.4 hPa North 5.0 km/h 7.2 km/h 98% 0.0 mm 0 W/m2
05:56 14.0 °C 13.7 °C 1012.4 hPa North 6.1 km/h 7.2 km/h 98% 0.0 mm 0 W/m2
06:01 14.0 °C 13.7 °C 1012.4 hPa NNW 3.5 km/h 7.2 km/h 98% 0.0 mm 0 W/m2
06:06 14.0 °C 13.7 °C 1012.4 hPa Calm   7.2 km/h 98% 0.3 mm 0 W/m2
06:11 14.0 °C 13.8 °C 1012.1 hPa Calm   5.0 km/h 99% 0.3 mm 0 W/m2
06:16 13.9 °C 13.8 °C 1012.1 hPa Calm   5.0 km/h 99% 0.3 mm 0 W/m2
06:21 13.9 °C 13.8 °C 1012.1 hPa Calm     99% 0.3 mm 0 W/m2
06:26 13.9 °C 13.8 °C 1012.4 hPa NNW 5.0 km/h 7.2 km/h 99% 0.3 mm 0 W/m2
06:31 13.9 °C 13.8 °C 1012.4 hPa NNW 3.5 km/h 8.7 km/h 99% 0.3 mm 0 W/m2
06:36 14.0 °C 13.8 °C 1012.4 hPa NNW 1.1 km/h 8.7 km/h 99% 0.3 mm 0 W/m2
06:41 13.9 °C 13.8 °C 1012.1 hPa Calm   7.2 km/h 99% 0.3 mm 0 W/m2
06:46 13.9 °C 13.8 °C 1012.1 hPa NW 3.5 km/h 6.1 km/h 99% 0.3 mm 0 W/m2
06:51 13.9 °C 13.8 °C 1012.1 hPa Calm   6.1 km/h 99% 0.3 mm 0 W/m2
06:56 13.9 °C 13.8 °C 1012.1 hPa Calm   6.1 km/h 99% 0.3 mm 0 W/m2
07:01 13.9 °C 13.8 °C 1012.1 hPa NW 6.1 km/h 8.7 km/h 99% 0.3 mm 0 W/m2
07:06 14.0 °C 13.8 °C 1012.1 hPa NW 2.6 km/h 8.7 km/h 99% 0.0 mm 0 W/m2
07:11 14.0 °C 13.8 °C 1012.1 hPa Calm   8.7 km/h 99% 0.0 mm 0 W/m2
07:16 14.0 °C 13.8 °C 1012.1 hPa Calm   6.1 km/h 99% 0.0 mm 0 W/m2
07:21 14.0 °C 13.8 °C 1012.1 hPa Calm     99% 0.0 mm 0 W/m2
07:26 13.9 °C 13.8 °C 1012.1 hPa Calm     99% 0.0 mm 0 W/m2
07:31 13.9 °C 13.8 °C 1012.1 hPa NW 2.6 km/h 6.1 km/h 99% 0.0 mm 0 W/m2
07:36 14.0 °C 13.8 °C 1012.1 hPa Calm   6.1 km/h 99% 0.0 mm 0 W/m2
07:41 14.0 °C 13.8 °C 1012.1 hPa NW 6.1 km/h 8.7 km/h 99% 0.0 mm 0 W/m2
07:46 14.0 °C 13.8 °C 1012.1 hPa NNW 5.0 km/h 9.7 km/h 99% 0.0 mm 0 W/m2
07:51 14.0 °C 13.8 °C 1012.1 hPa NNW 5.0 km/h 9.7 km/h 99% 0.0 mm 0 W/m2
07:56 14.0 °C 13.8 °C 1012.1 hPa NNW 6.1 km/h 8.7 km/h 99% 0.0 mm 0 W/m2
08:01 13.9 °C 13.8 °C 1012.1 hPa NNW 3.5 km/h 8.7 km/h 99% 0.0 mm 0 W/m2
08:06 13.9 °C 13.8 °C 1012.1 hPa Calm   8.7 km/h 99% 0.0 mm 0 W/m2
08:11 13.8 °C 13.7 °C 1012.1 hPa Calm   6.1 km/h 99% 0.0 mm 0 W/m2
08:16 13.7 °C 13.6 °C 1012.1 hPa Calm     99% 0.0 mm 0 W/m2
08:21 13.7 °C 13.6 °C 1012.1 hPa Calm     99% 0.0 mm 0 W/m2
08:26 13.7 °C 13.6 °C 1012.1 hPa Calm   5.0 km/h 99% 0.0 mm 0 W/m2
08:31 13.7 °C 13.6 °C 1012.1 hPa Calm   5.0 km/h 99% 0.0 mm 0 W/m2
08:36 13.7 °C 13.6 °C 1012.1 hPa Calm   6.1 km/h 99% 0.0 mm 0 W/m2
08:41 13.6 °C 13.4 °C 1012.4 hPa NW 5.0 km/h 7.2 km/h 99% 0.0 mm 0 W/m2
08:46 13.6 °C 13.4 °C 1012.1 hPa NW 5.0 km/h 7.2 km/h 99% 0.0 mm 0 W/m2
08:51 13.5 °C 13.3 °C 1012.1 hPa NW 3.5 km/h 8.7 km/h 99% 0.0 mm 0 W/m2
08:56 13.4 °C 13.3 °C 1012.4 hPa Calm   8.7 km/h 99% 0.0 mm 0 W/m2
09:01 13.4 °C 13.3 °C 1012.4 hPa Calm   6.1 km/h 99% 0.0 mm 0 W/m2
09:06 13.3 °C 13.2 °C 1012.1 hPa NNW 3.5 km/h 5.0 km/h 99% 0.0 mm 0 W/m2
09:11 13.2 °C 13.1 °C 1012.1 hPa Calm   5.0 km/h 99% 0.0 mm 0 W/m2
09:16 13.2 °C 13.1 °C 1012.4 hPa NW 2.6 km/h 6.1 km/h 99% 0.0 mm 0 W/m2
09:21 13.2 °C 13.1 °C 1012.4 hPa Calm   7.2 km/h 99% 0.0 mm 0 W/m2
09:26 13.1 °C 12.9 °C 1012.4 hPa Calm   7.2 km/h 99% 0.0 mm 0 W/m2
09:31 13.1 °C 12.9 °C 1012.8 hPa Calm     99% 0.0 mm 0 W/m2
09:36 13.1 °C 12.9 °C 1012.4 hPa Calm     99% 0.0 mm 0 W/m2
09:41 13.0 °C 12.8 °C 1012.4 hPa Calm     99% 0.0 mm 0 W/m2
09:46 13.0 °C 12.8 °C 1012.4 hPa Calm     99% 0.0 mm 0 W/m2
09:51 12.8 °C 12.3 °C 1012.4 hPa Calm     97% 0.0 mm 0 W/m2
09:56 12.7 °C 12.2 °C 1012.1 hPa Calm     97% 0.0 mm 0 W/m2
10:01 12.6 °C 12.2 °C 1012.1 hPa Calm   2.6 km/h 97% 0.0 mm 0 W/m2
10:05 12.5 °C 12.1 °C 1012.1 hPa Calm   2.6 km/h 97% 0.0 mm 0 W/m2
10:10 12.6 °C 12.2 °C 1012.4 hPa NW 3.5 km/h 8.7 km/h 97% 0.0 mm 0 W/m2
10:15 12.6 °C 12.2 °C 1012.1 hPa NW 3.5 km/h 8.7 km/h 97% 0.0 mm 0 W/m2
10:20 12.7 °C 12.2 °C 1012.1 hPa NW 5.0 km/h 9.7 km/h 97% 0.0 mm 0 W/m2
10:25 12.7 °C 12.2 °C 1012.1 hPa NW 5.0 km/h 9.7 km/h 97% 0.0 mm 0 W/m2
10:30 12.7 °C 12.2 °C 1012.1 hPa NNW 5.0 km/h 9.7 km/h 97% 0.0 mm 0 W/m2
10:35 12.7 °C 12.2 °C 1012.1 hPa NNW 6.1 km/h 11.1 km/h 97% 0.0 mm 0 W/m2
10:40 12.7 °C 12.2 °C 1012.1 hPa NW 5.0 km/h 11.1 km/h 97% 0.0 mm 0 W/m2
10:45 12.6 °C 12.2 °C 1012.1 hPa Calm   9.7 km/h 97% 0.0 mm 0 W/m2
10:50 12.6 °C 12.2 °C 1012.1 hPa Calm   7.2 km/h 97% 0.0 mm 0 W/m2
10:55 12.6 °C 12.2 °C 1012.1 hPa NW 5.0 km/h 9.7 km/h 97% 0.0 mm 0 W/m2
11:00 12.6 °C 12.2 °C 1012.1 hPa Calm   9.7 km/h 97% 0.0 mm 0 W/m2
11:05 12.6 °C 12.2 °C 1011.7 hPa NW 6.1 km/h 9.7 km/h 97% 0.0 mm 0 W/m2
11:10 12.6 °C 12.2 °C 1012.1 hPa NW 5.0 km/h 9.7 km/h 97% 0.0 mm 0 W/m2
11:15 12.6 °C 12.2 °C 1012.1 hPa NW 5.0 km/h 9.7 km/h 97% 0.0 mm 0 W/m2
11:20 12.6 °C 12.2 °C 1011.7 hPa NNW 3.5 km/h 9.7 km/h 97% 0.0 mm 0 W/m2
11:26 12.6 °C 12.2 °C 1011.7 hPa Calm   7.2 km/h 97% 0.0 mm 0 W/m2
11:31 12.6 °C 12.2 °C 1011.7 hPa Calm   6.1 km/h 97% 0.0 mm 0 W/m2
11:36 12.7 °C 12.2 °C 1012.1 hPa Calm   5.0 km/h 97% 0.0 mm 0 W/m2
11:41 12.7 °C 12.2 °C 1011.7 hPa NNW 5.0 km/h 7.2 km/h 97% 0.0 mm 0 W/m2
11:46 12.8 °C 12.3 °C 1012.1 hPa NNW 5.0 km/h 9.7 km/h 97% 0.0 mm 0 W/m2
11:51 12.6 °C 12.2 °C 1012.1 hPa NNW 6.1 km/h 12.2 km/h 97% 0.0 mm 0 W/m2
11:56 12.5 °C 12.1 °C 1012.1 hPa NNW 5.0 km/h 12.2 km/h 97% 0.0 mm 0 W/m2
12:01 12.5 °C 12.1 °C 1012.1 hPa NNW 5.0 km/h 12.2 km/h 97% 0.0 mm 0 W/m2
12:06 12.5 °C 12.1 °C 1012.1 hPa NNW 3.5 km/h 11.1 km/h 97% 0.0 mm 0 W/m2
12:11 12.5 °C 12.1 °C 1012.1 hPa NNW 3.5 km/h 8.7 km/h 97% 0.0 mm 0 W/m2
12:16 12.5 °C 12.1 °C 1012.1 hPa North 1.1 km/h 7.2 km/h 97% 0.0 mm 0 W/m2
12:21 12.5 °C 12.1 °C 1012.1 hPa North 6.1 km/h 8.7 km/h 97% 0.0 mm 0 W/m2
12:26 12.5 °C 12.1 °C 1012.1 hPa NNW 3.5 km/h 12.2 km/h 97% 0.0 mm 0 W/m2
12:31 12.5 °C 12.1 °C 1012.1 hPa Calm   12.2 km/h 97% 0.0 mm 0 W/m2
12:36 12.5 °C 12.1 °C 1012.1 hPa Calm   9.7 km/h 97% 0.0 mm 0 W/m2
12:41 12.5 °C 12.1 °C 1012.1 hPa WNW 5.0 km/h 9.7 km/h 97% 0.0 mm 0 W/m2
12:46 12.4 °C 11.9 °C 1012.1 hPa Calm   7.2 km/h 97% 0.0 mm 0 W/m2
12:51 12.4 °C 11.9 °C 1012.1 hPa Calm   6.1 km/h 97% 0.0 mm 0 W/m2
12:56 12.4 °C 11.9 °C 1012.1 hPa Calm     97% 0.0 mm 0 W/m2
13:01 12.4 °C 11.9 °C 1012.4 hPa Calm     97% 0.0 mm 0 W/m2
13:06 12.4 °C 11.9 °C 1012.4 hPa Calm     97% 0.0 mm 0 W/m2
13:11 12.4 °C 11.9 °C 1012.1 hPa Calm     97% 0.0 mm 0 W/m2
13:16 12.4 °C 11.9 °C 1012.4 hPa Calm     97% 0.0 mm 0 W/m2
13:21 12.4 °C 11.9 °C 1012.4 hPa Calm   5.0 km/h 97% 0.0 mm 0 W/m2
13:26 12.4 °C 11.9 °C 1012.1 hPa Calm   5.0 km/h 97% 0.0 mm 0 W/m2
13:31 12.4 °C 11.9 °C 1012.1 hPa Calm     97% 0.0 mm 0 W/m2
13:36 12.4 °C 11.9 °C 1012.1 hPa Calm     97% 0.0 mm 0 W/m2
13:41 12.4 °C 11.9 °C 1012.1 hPa Calm     97% 0.0 mm 0 W/m2
13:46 12.3 °C 11.8 °C 1012.1 hPa Calm     97% 0.0 mm 0 W/m2
13:51 12.2 °C 11.7 °C 1012.1 hPa Calm     97% 0.0 mm 0 W/m2
13:56 12.2 °C 11.7 °C 1012.1 hPa Calm     97% 0.0 mm 0 W/m2
14:01 12.2 °C 11.7 °C 1012.1 hPa Calm     97% 0.0 mm 0 W/m2
14:06 12.1 °C 11.7 °C 1012.1 hPa Calm     97% 0.0 mm 0 W/m2
14:11 12.1 °C 11.7 °C 1012.1 hPa Calm     97% 0.0 mm 0 W/m2
14:16 12.0 °C 11.6 °C 1012.1 hPa Calm     97% 0.0 mm 0 W/m2
14:21 11.8 °C 11.5 °C 1012.1 hPa Calm     98% 0.0 mm 0 W/m2
14:26 11.7 °C 11.4 °C 1012.1 hPa Calm     98% 0.0 mm 0 W/m2
14:31 11.6 °C 11.3 °C 1012.1 hPa Calm     98% 0.0 mm 0 W/m2
14:36 11.5 °C 11.2 °C 1012.1 hPa Calm     98% 0.0 mm 0 W/m2
14:41 11.5 °C 11.2 °C 1012.1 hPa Calm     98% 0.0 mm 3 W/m2
14:46 11.4 °C 11.1 °C 1012.4 hPa Calm     98% 0.0 mm 5 W/m2
14:51 11.5 °C 11.2 °C 1012.1 hPa Calm     98% 0.0 mm 12 W/m2
14:56 11.5 °C 11.2 °C 1012.1 hPa Calm     98% 0.0 mm 14 W/m2
15:01 11.5 °C 11.2 °C 1012.1 hPa Calm     98% 0.0 mm 15 W/m2
15:06 11.5 °C 11.2 °C 1012.4 hPa Calm     98% 0.0 mm 18 W/m2
15:11 11.6 °C 11.3 °C 1012.4 hPa Calm     98% 0.0 mm 60 W/m2
15:16 11.8 °C 11.5 °C 1012.4 hPa Calm     98% 0.0 mm 85 W/m2
15:21 12.2 °C 11.7 °C 1012.4 hPa Calm     97% 0.0 mm 105 W/m2
15:26 12.6 °C 12.2 °C 1012.4 hPa Calm     97% 0.0 mm 121 W/m2
15:31 13.0 °C 12.8 °C 1012.4 hPa Calm     99% 0.0 mm 111 W/m2
15:36 13.1 °C 12.9 °C 1012.4 hPa Calm   3.5 km/h 99% 0.0 mm 148 W/m2
15:41 13.2 °C 13.1 °C 1012.8 hPa Calm   5.0 km/h 99% 0.0 mm 174 W/m2
15:46 13.4 °C 13.3 °C 1012.8 hPa Calm   5.0 km/h 99% 0.0 mm 195 W/m2
15:51 13.6 °C 13.4 °C 1012.8 hPa NNW 3.5 km/h 7.2 km/h 99% 0.0 mm 206 W/m2
15:56 13.6 °C 13.4 °C 1013.1 hPa NNW 1.1 km/h 7.2 km/h 99% 0.0 mm 178 W/m2
16:01 13.6 °C 13.4 °C 1013.1 hPa Calm   6.1 km/h 99% 0.0 mm 70 W/m2
16:06 13.4 °C 13.1 °C 1013.4 hPa Calm   6.1 km/h 98% 0.0 mm 246 W/m2
16:11 14.1 °C 13.5 °C 1013.4 hPa Calm   6.1 km/h 96% 0.0 mm 290 W/m2
16:16 14.9 °C 14.3 °C 1013.4 hPa Calm   5.0 km/h 96% 0.0 mm 291 W/m2
16:21 15.6 °C 14.3 °C 1013.4 hPa Calm   5.0 km/h 92% 0.0 mm 304 W/m2
16:26 15.7 °C 13.4 °C 1013.4 hPa NNW 1.1 km/h 6.1 km/h 86% 0.0 mm 319 W/m2
16:31 16.0 °C 13.3 °C 1013.4 hPa Calm   6.1 km/h 84% 0.0 mm 335 W/m2
16:36 16.2 °C 13.3 °C 1013.4 hPa NNW 5.0 km/h 7.2 km/h 83% 0.0 mm 353 W/m2
16:41 16.0 °C 12.9 °C 1013.8 hPa NNW 1.1 km/h 7.2 km/h 82% 0.0 mm 219 W/m2
16:46 16.0 °C 13.1 °C 1013.4 hPa Calm   7.2 km/h 83% 0.0 mm 292 W/m2
16:51 16.0 °C 13.1 °C 1013.4 hPa NNW 2.6 km/h 6.1 km/h 83% 0.0 mm 295 W/m2
16:56 15.8 °C 13.1 °C 1013.4 hPa NNW 5.0 km/h 7.2 km/h 84% 0.0 mm 205 W/m2
17:01 15.7 °C 13.2 °C 1013.4 hPa NNW 2.6 km/h 7.2 km/h 85% 0.0 mm 105 W/m2
17:06 15.4 °C 12.9 °C 1013.1 hPa Calm   7.2 km/h 85% 0.0 mm 98 W/m2
17:11 15.3 °C 13.0 °C 1013.1 hPa Calm   5.0 km/h 86% 0.0 mm 103 W/m2
17:16 15.1 °C 12.8 °C 1013.1 hPa Calm   3.5 km/h 86% 0.0 mm 101 W/m2
17:21 15.1 °C 12.8 °C 1013.1 hPa Calm   3.5 km/h 86% 0.0 mm 84 W/m2
17:26 15.0 °C 12.8 °C 1013.1 hPa Calm   5.0 km/h 87% 0.0 mm 309 W/m2
17:31 15.5 °C 13.6 °C 1013.1 hPa North 6.1 km/h 8.7 km/h 88% 0.0 mm 195 W/m2
17:36 15.6 °C 13.3 °C 1013.4 hPa NNW 3.5 km/h 11.1 km/h 86% 0.0 mm 143 W/m2
17:41 15.6 °C 13.4 °C 1013.4 hPa NNW 2.6 km/h 11.1 km/h 87% 0.0 mm 146 W/m2
17:46 16.2 °C 14.1 °C 1013.4 hPa Calm   8.7 km/h 87% 0.0 mm 172 W/m2
17:51 17.0 °C 14.4 °C 1013.1 hPa Calm   7.2 km/h 85% 0.0 mm 176 W/m2
17:56 17.3 °C 14.4 °C 1013.1 hPa Calm   1.1 km/h 83% 0.0 mm 179 W/m2
18:01 17.2 °C 13.9 °C 1013.1 hPa Calm   7.2 km/h 81% 0.0 mm 175 W/m2
18:06 16.8 °C 13.3 °C 1013.4 hPa NW 7.2 km/h 11.1 km/h 80% 0.0 mm 186 W/m2
18:11 16.5 °C 13.4 °C 1013.4 hPa NW 1.1 km/h 11.1 km/h 82% 0.0 mm 198 W/m2
18:16 16.6 °C 13.5 °C 1013.1 hPa Calm   9.7 km/h 82% 0.0 mm 197 W/m2
18:21 16.5 °C 13.4 °C 1013.4 hPa NNW 1.1 km/h 9.7 km/h 82% 0.0 mm 191 W/m2
18:26 16.6 °C 13.7 °C 1013.4 hPa Calm   6.1 km/h 83% 0.0 mm 189 W/m2
18:31 16.8 °C 13.9 °C 1013.4 hPa Calm   5.0 km/h 83% 0.0 mm 190 W/m2
18:36 16.8 °C 13.7 °C 1013.4 hPa NNW 1.1 km/h 5.0 km/h 82% 0.0 mm 200 W/m2
18:41 17.0 °C 13.7 °C 1013.4 hPa Calm   5.0 km/h 81% 0.0 mm 216 W/m2
18:46 17.2 °C 13.9 °C 1013.4 hPa SW 3.5 km/h 7.2 km/h 81% 0.0 mm 221 W/m2
18:51 17.0 °C 13.6 °C 1013.4 hPa Calm   8.7 km/h 80% 0.0 mm 200 W/m2
18:56 17.1 °C 13.8 °C 1013.4 hPa SW 5.0 km/h 9.7 km/h 81% 0.0 mm 195 W/m2
19:01 17.0 °C 14.1 °C 1013.4 hPa SW 9.7 km/h 12.2 km/h 83% 0.0 mm 183 W/m2
19:06 16.9 °C 14.4 °C 1013.4 hPa SW 8.7 km/h 12.2 km/h 85% 0.0 mm 185 W/m2
19:11 16.7 °C 14.2 °C 1013.4 hPa SSW 7.2 km/h 12.2 km/h 85% 0.0 mm 191 W/m2
19:16 16.6 °C 14.1 °C 1013.4 hPa SSW 6.1 km/h 14.8 km/h 85% 0.0 mm 206 W/m2
19:21 16.7 °C 14.2 °C 1013.4 hPa SW 7.2 km/h 14.8 km/h 85% 0.0 mm 249 W/m2
19:26 16.9 °C 14.4 °C 1013.4 hPa SSW 12.2 km/h 18.3 km/h 85% 0.0 mm 261 W/m2
19:31 16.9 °C 14.2 °C 1013.4 hPa SW 12.2 km/h 18.3 km/h 84% 0.0 mm 300 W/m2
19:36 17.2 °C 14.5 °C 1013.4 hPa SW 11.1 km/h 18.3 km/h 84% 0.0 mm 559 W/m2
19:41 17.9 °C 14.8 °C 1013.4 hPa SSW 15.8 km/h 20.9 km/h 82% 0.0 mm 620 W/m2
19:46 18.2 °C 15.1 °C 1013.4 hPa SW 13.4 km/h 20.9 km/h 82% 0.0 mm 581 W/m2
19:51 18.5 °C 15.0 °C 1013.4 hPa SW 12.2 km/h 20.9 km/h 80% 0.0 mm 547 W/m2
19:56 18.3 °C 14.6 °C 1013.4 hPa SW 14.8 km/h 20.9 km/h 79% 0.0 mm 523 W/m2
20:01 18.6 °C 14.9 °C 1013.4 hPa SW 14.8 km/h 20.9 km/h 79% 0.0 mm 526 W/m2
20:06 18.3 °C 14.4 °C 1013.4 hPa SW 15.8 km/h 20.9 km/h 78% 0.0 mm 539 W/m2
20:11 18.2 °C 14.5 °C 1013.1 hPa SSW 13.4 km/h 20.9 km/h 79% 0.0 mm 525 W/m2
20:16 18.2 °C 14.3 °C 1013.4 hPa SSW 12.2 km/h 19.5 km/h 78% 0.0 mm 269 W/m2
20:21 17.8 °C 14.5 °C 1013.4 hPa SSW 7.2 km/h 19.5 km/h 81% 0.0 mm 564 W/m2
20:26 18.6 °C 15.1 °C 1013.1 hPa SSW 12.2 km/h 17.2 km/h 80% 0.0 mm 559 W/m2
20:31 18.5 °C 14.4 °C 1013.4 hPa SSW 12.2 km/h 18.3 km/h 77% 0.0 mm 164 W/m2
20:36 17.8 °C 14.3 °C 1013.1 hPa SW 12.2 km/h 18.3 km/h 80% 0.0 mm 441 W/m2
20:38 17.6 °C 13.9 °C 1012.8 hPa SSW 14.8 km/h 18.3 km/h 79% 0.0 mm 238 W/m2
20:43 17.4 °C 14.1 °C 1012.8 hPa SSW 11.1 km/h 18.3 km/h 81% 0.0 mm 198 W/m2
20:48 17.0 °C 13.7 °C 1012.8 hPa SSW 7.2 km/h 18.3 km/h 81% 0.0 mm 94 W/m2
20:53 16.8 °C 13.9 °C 1013.1 hPa SSW 3.5 km/h 14.8 km/h 83% 0.0 mm 84 W/m2
20:58 16.6 °C 13.7 °C 1012.8 hPa SSW 3.5 km/h 12.2 km/h 83% 0.0 mm 99 W/m2
21:03 16.6 °C 13.7 °C 1012.8 hPa SW 5.0 km/h 13.4 km/h 83% 0.0 mm 95 W/m2
21:08 16.6 °C 13.7 °C 1012.8 hPa SW 7.2 km/h 13.4 km/h 83% 0.0 mm 103 W/m2
21:13 16.6 °C 13.7 °C 1012.8 hPa SW 5.0 km/h 11.1 km/h 83% 0.0 mm 112 W/m2
21:18 16.6 °C 13.7 °C 1012.8 hPa SW 7.2 km/h 15.8 km/h 83% 0.0 mm 156 W/m2
21:23 16.7 °C 14.0 °C 1012.8 hPa SW 7.2 km/h 15.8 km/h 84% 0.0 mm 160 W/m2
21:28 16.7 °C 13.8 °C 1012.8 hPa SSW 13.4 km/h 20.9 km/h 83% 0.0 mm 190 W/m2
21:33 16.8 °C 13.9 °C 1012.4 hPa SSW 9.7 km/h 20.9 km/h 83% 0.0 mm 160 W/m2
21:38 16.8 °C 13.7 °C 1012.8 hPa SSW 5.0 km/h 20.9 km/h 82% 0.0 mm 171 W/m2
21:43 16.9 °C 13.8 °C 1012.8 hPa SW 8.7 km/h 17.2 km/h 82% 0.0 mm 166 W/m2
21:48 16.9 °C 13.6 °C 1012.8 hPa SSW 7.2 km/h 14.8 km/h 81% 0.0 mm 157 W/m2
21:53 17.0 °C 13.6 °C 1012.8 hPa SSW 8.7 km/h 13.4 km/h 80% 0.0 mm 170 W/m2
21:58 17.1 °C 13.4 °C 1012.8 hPa SSW 8.7 km/h 12.2 km/h 79% 0.0 mm 215 W/m2
22:03 17.2 °C 13.3 °C 1012.8 hPa SSW 5.0 km/h 15.8 km/h 78% 0.0 mm 289 W/m2
22:08 18.0 °C 14.5 °C 1012.8 hPa SSW 11.1 km/h 15.8 km/h 80% 0.0 mm 370 W/m2
22:13 18.6 °C 14.5 °C 1012.8 hPa SSW 7.2 km/h 14.8 km/h 77% 0.0 mm 249 W/m2
22:18 18.6 °C 14.1 °C 1012.8 hPa SSW 8.7 km/h 14.8 km/h 75% 0.0 mm 274 W/m2
22:23 19.3 °C 14.6 °C 1012.8 hPa SSW 7.2 km/h 14.8 km/h 74% 0.0 mm 160 W/m2
22:28 18.8 °C 13.9 °C 1012.8 hPa South 7.2 km/h 14.8 km/h 73% 0.0 mm 136 W/m2
22:33 17.9 °C 13.0 °C 1013.1 hPa South 7.2 km/h 13.4 km/h 73% 0.0 mm 141 W/m2
22:38 17.9 °C 13.2 °C 1012.8 hPa South 7.2 km/h 11.1 km/h 74% 0.0 mm 121 W/m2
22:43 17.5 °C 12.8 °C 1012.8 hPa South 2.6 km/h 9.7 km/h 74% 0.0 mm 74 W/m2
22:48 17.2 °C 12.7 °C 1013.1 hPa Calm   11.1 km/h 75% 0.0 mm 59 W/m2
22:53 17.0 °C 12.6 °C 1013.1 hPa Calm   11.1 km/h 75% 0.0 mm 45 W/m2
22:58 17.0 °C 12.7 °C 1013.1 hPa Calm   6.1 km/h 76% 0.0 mm 29 W/m2
23:04 16.8 °C 12.8 °C 1013.4 hPa Calm     77% 0.0 mm 16 W/m2
23:09 16.6 °C 12.8 °C 1013.4 hPa Calm     78% 0.0 mm 14 W/m2
23:14 16.5 °C 12.8 °C 1013.4 hPa Calm     79% 0.3 mm 14 W/m2
23:19 16.4 °C 12.9 °C 1013.4 hPa Calm     80% 0.5 mm 16 W/m2
23:24 16.2 °C 12.8 °C 1013.4 hPa Calm     80% 1.0 mm 18 W/m2
23:29 16.1 °C 12.8 °C 1013.4 hPa Calm     81% 1.0 mm 22 W/m2
23:34 16.0 °C 12.9 °C 1013.8 hPa Calm     82% 1.0 mm 26 W/m2
23:39 15.9 °C 13.0 °C 1013.8 hPa Calm     83% 1.3 mm 31 W/m2
23:44 15.9 °C 13.2 °C 1013.8 hPa Calm     84% 1.3 mm 34 W/m2
23:49 15.9 °C 13.4 °C 1013.8 hPa Calm   1.1 km/h 85% 1.3 mm 35 W/m2
23:54 15.8 °C 13.7 °C 1013.8 hPa Calm   1.1 km/h 87% 1.3 mm 34 W/m2
23:59 15.7 °C 14.1 °C 1013.8 hPa Calm     90% 1.3 mm 33 W/m2
Northern Hawkes Bay. New Zealand Historic Data
Compliments of Weather Underground - 2 mb